Charleroi, Belgium
Current Conditions -  °F | °C
As of 7:20 AM on Monday 26 Jan 2015 (Local Time) from EBCI Reporting Station
Drizzle Drizzle  
Wind Chill: 31°   Ceiling: 300
Heat Index: 37°   Visibility: 0.68mi
Dew Point: 37°   Wind: 9mph
Humidity: 100%   Direction: 210°SSW
Pressure: 30.18"   Gusts: NA
Location:  50.42°N, 4.43°E
Report Text: EBCI 260620Z 21008KT 1100 R25/1300N -DZ BR SCT001 BKN003 03/03 Q1022 R25/290095 NOSIG
Loading
Personal Weather Stations






























Interactive Weather Map New forecast layout! Learn more

10-Day Weather Forecast

Advertisements
Track Severe Weather on mobile